sensor_id;sensor_type;location;lat;lon;timestamp;temperature;humidity
59007;DHT22;44792;52.760;6.726;2023-12-04T00:00:35;0.90;99.90
59007;DHT22;44792;52.760;6.726;2023-12-04T00:03:01;1.00;99.90
59007;DHT22;44792;52.760;6.726;2023-12-04T00:05:27;0.90;99.90
59007;DHT22;44792;52.760;6.726;2023-12-04T00:07:52;1.00;99.90
59007;DHT22;44792;52.760;6.726;2023-12-04T00:10:18;0.90;99.90
59007;DHT22;44792;52.760;6.726;2023-12-04T00:12:44;1.00;99.90
59007;DHT22;44792;52.760;6.726;2023-12-04T00:15:10;0.90;99.90
59007;DHT22;44792;52.760;6.726;2023-12-04T00:17:36;0.90;99.90
59007;DHT22;44792;52.760;6.726;2023-12-04T00:20:06;0.90;99.90
59007;DHT22;44792;52.760;6.726;2023-12-04T00:22:32;0.90;99.90
59007;DHT22;44792;52.760;6.726;2023-12-04T00:24:58;0.90;99.90
59007;DHT22;44792;52.760;6.726;2023-12-04T00:27:23;0.90;99.90
59007;DHT22;44792;52.760;6.726;2023-12-04T00:29:53;1.00;99.90
59007;DHT22;44792;52.760;6.726;2023-12-04T00:32:18;0.80;99.90
59007;DHT22;44792;52.760;6.726;2023-12-04T00:34:44;0.90;99.90
59007;DHT22;44792;52.760;6.726;2023-12-04T00:37:10;0.90;99.90
59007;DHT22;44792;52.760;6.726;2023-12-04T00:39:35;0.90;99.90
59007;DHT22;44792;52.760;6.726;2023-12-04T00:42:01;0.90;99.90
59007;DHT22;44792;52.760;6.726;2023-12-04T00:44:27;0.90;99.90
59007;DHT22;44792;52.760;6.726;2023-12-04T00:46:52;0.90;99.90
59007;DHT22;44792;52.760;6.726;2023-12-04T00:49:19;0.90;99.90
59007;DHT22;44792;52.760;6.726;2023-12-04T00:51:44;1.00;99.90
59007;DHT22;44792;52.760;6.726;2023-12-04T00:54:11;1.00;99.90
59007;DHT22;44792;52.760;6.726;2023-12-04T00:56:40;1.00;99.90
59007;DHT22;44792;52.760;6.726;2023-12-04T00:59:08;1.00;99.90
59007;DHT22;44792;52.760;6.726;2023-12-04T01:01:35;0.90;99.90
59007;DHT22;44792;52.760;6.726;2023-12-04T01:04:01;1.00;99.90
59007;DHT22;44792;52.760;6.726;2023-12-04T01:06:27;1.00;99.90
59007;DHT22;44792;52.760;6.726;2023-12-04T01:08:54;1.00;99.90
59007;DHT22;44792;52.760;6.726;2023-12-04T01:11:20;0.90;99.90
59007;DHT22;44792;52.760;6.726;2023-12-04T01:13:46;0.90;99.90
59007;DHT22;44792;52.760;6.726;2023-12-04T01:16:11;1.00;99.90
59007;DHT22;44792;52.760;6.726;2023-12-04T01:18:37;1.00;99.90
59007;DHT22;44792;52.760;6.726;2023-12-04T01:21:03;1.00;99.90
59007;DHT22;44792;52.760;6.726;2023-12-04T01:23:29;1.00;99.90
59007;DHT22;44792;52.760;6.726;2023-12-04T01:25:55;1.00;99.90
59007;DHT22;44792;52.760;6.726;2023-12-04T01:28:20;1.00;99.90
59007;DHT22;44792;52.760;6.726;2023-12-04T01:30:46;1.00;99.90
59007;DHT22;44792;52.760;6.726;2023-12-04T01:33:12;1.00;99.90
59007;DHT22;44792;52.760;6.726;2023-12-04T01:35:37;0.90;99.90
59007;DHT22;44792;52.760;6.726;2023-12-04T01:38:03;1.00;99.90
59007;DHT22;44792;52.760;6.726;2023-12-04T01:40:29;1.00;99.90
59007;DHT22;44792;52.760;6.726;2023-12-04T01:42:54;1.00;99.90
59007;DHT22;44792;52.760;6.726;2023-12-04T01:45:20;1.00;99.90
59007;DHT22;44792;52.760;6.726;2023-12-04T01:47:46;1.00;99.90
59007;DHT22;44792;52.760;6.726;2023-12-04T01:50:12;0.90;99.90
59007;DHT22;44792;52.760;6.726;2023-12-04T01:52:40;1.00;99.90
59007;DHT22;44792;52.760;6.726;2023-12-04T01:55:07;1.00;99.90
59007;DHT22;44792;52.760;6.726;2023-12-04T01:57:34;1.00;99.90
59007;DHT22;44792;52.760;6.726;2023-12-04T02:00:00;1.10;99.90
59007;DHT22;44792;52.760;6.726;2023-12-04T02:02:28;1.10;99.90
59007;DHT22;44792;52.760;6.726;2023-12-04T02:04:57;1.10;99.90
59007;DHT22;44792;52.760;6.726;2023-12-04T02:07:25;1.10;99.90
59007;DHT22;44792;52.760;6.726;2023-12-04T02:09:50;1.10;99.90
59007;DHT22;44792;52.760;6.726;2023-12-04T02:12:17;1.10;99.90
59007;DHT22;44792;52.760;6.726;2023-12-04T02:14:43;1.10;99.90
59007;DHT22;44792;52.760;6.726;2023-12-04T02:17:08;1.10;99.90
59007;DHT22;44792;52.760;6.726;2023-12-04T02:19:35;1.10;99.90
59007;DHT22;44792;52.760;6.726;2023-12-04T02:22:01;1.10;99.90
59007;DHT22;44792;52.760;6.726;2023-12-04T02:24:27;1.20;99.90
59007;DHT22;44792;52.760;6.726;2023-12-04T02:26:59;1.20;99.90
59007;DHT22;44792;52.760;6.726;2023-12-04T02:29:32;1.20;99.90
59007;DHT22;44792;52.760;6.726;2023-12-04T02:32:04;1.10;99.90
59007;DHT22;44792;52.760;6.726;2023-12-04T02:34:32;1.20;99.90
59007;DHT22;44792;52.760;6.726;2023-12-04T02:36:59;1.20;99.90
59007;DHT22;44792;52.760;6.726;2023-12-04T02:39:26;1.10;99.90
59007;DHT22;44792;52.760;6.726;2023-12-04T02:41:52;1.30;99.90
59007;DHT22;44792;52.760;6.726;2023-12-04T02:44:18;1.30;99.90
59007;DHT22;44792;52.760;6.726;2023-12-04T02:46:44;1.20;99.90
59007;DHT22;44792;52.760;6.726;2023-12-04T02:49:10;1.20;99.90
59007;DHT22;44792;52.760;6.726;2023-12-04T02:51:35;1.30;99.90
59007;DHT22;44792;52.760;6.726;2023-12-04T02:54:01;1.20;99.90
59007;DHT22;44792;52.760;6.726;2023-12-04T02:56:26;1.20;99.90
59007;DHT22;44792;52.760;6.726;2023-12-04T02:58:52;1.30;99.90
59007;DHT22;44792;52.760;6.726;2023-12-04T03:01:18;1.20;99.90
59007;DHT22;44792;52.760;6.726;2023-12-04T03:03:43;1.30;99.90
59007;DHT22;44792;52.760;6.726;2023-12-04T03:06:09;1.20;99.90
59007;DHT22;44792;52.760;6.726;2023-12-04T03:08:35;1.20;99.90
59007;DHT22;44792;52.760;6.726;2023-12-04T03:11:02;1.20;99.90
59007;DHT22;44792;52.760;6.726;2023-12-04T03:13:29;1.20;99.90
59007;DHT22;44792;52.760;6.726;2023-12-04T03:15:54;1.20;99.90
59007;DHT22;44792;52.760;6.726;2023-12-04T03:18:20;1.20;99.90
59007;DHT22;44792;52.760;6.726;2023-12-04T03:20:46;1.20;99.90
59007;DHT22;44792;52.760;6.726;2023-12-04T03:23:11;1.20;99.90
59007;DHT22;44792;52.760;6.726;2023-12-04T03:25:37;1.20;99.90
59007;DHT22;44792;52.760;6.726;2023-12-04T03:28:03;1.20;99.90
59007;DHT22;44792;52.760;6.726;2023-12-04T03:30:28;1.20;99.90
59007;DHT22;44792;52.760;6.726;2023-12-04T03:32:54;1.20;99.90
59007;DHT22;44792;52.760;6.726;2023-12-04T03:35:20;1.20;99.90
59007;DHT22;44792;52.760;6.726;2023-12-04T03:37:45;1.20;99.90
59007;DHT22;44792;52.760;6.726;2023-12-04T03:40:11;1.20;99.90
59007;DHT22;44792;52.760;6.726;2023-12-04T03:42:37;1.20;99.90
59007;DHT22;44792;52.760;6.726;2023-12-04T03:45:03;1.30;99.90
59007;DHT22;44792;52.760;6.726;2023-12-04T03:47:29;1.20;99.90
59007;DHT22;44792;52.760;6.726;2023-12-04T03:49:55;1.20;99.90
59007;DHT22;44792;52.760;6.726;2023-12-04T03:52:20;1.20;99.90
59007;DHT22;44792;52.760;6.726;2023-12-04T03:54:46;1.10;99.90
59007;DHT22;44792;52.760;6.726;2023-12-04T03:57:12;1.30;99.90
59007;DHT22;44792;52.760;6.726;2023-12-04T03:59:37;1.10;99.90
59007;DHT22;44792;52.760;6.726;2023-12-04T04:02:03;1.10;99.90
59007;DHT22;44792;52.760;6.726;2023-12-04T04:04:29;1.20;99.90
59007;DHT22;44792;52.760;6.726;2023-12-04T04:06:54;1.20;99.90
59007;DHT22;44792;52.760;6.726;2023-12-04T04:09:20;1.20;99.90
59007;DHT22;44792;52.760;6.726;2023-12-04T04:11:46;1.20;99.90
59007;DHT22;44792;52.760;6.726;2023-12-04T04:14:12;1.20;99.90
59007;DHT22;44792;52.760;6.726;2023-12-04T04:16:37;1.20;99.90
59007;DHT22;44792;52.760;6.726;2023-12-04T04:19:03;1.20;99.90
59007;DHT22;44792;52.760;6.726;2023-12-04T04:21:29;1.20;99.90
59007;DHT22;44792;52.760;6.726;2023-12-04T04:23:54;1.20;99.90
59007;DHT22;44792;52.760;6.726;2023-12-04T04:26:20;1.20;99.90
59007;DHT22;44792;52.760;6.726;2023-12-04T04:28:46;1.30;99.90
59007;DHT22;44792;52.760;6.726;2023-12-04T04:31:11;1.30;99.90
59007;DHT22;44792;52.760;6.726;2023-12-04T04:33:37;1.30;99.90
59007;DHT22;44792;52.760;6.726;2023-12-04T04:36:03;1.30;99.90
59007;DHT22;44792;52.760;6.726;2023-12-04T04:38:29;1.30;99.90
59007;DHT22;44792;52.760;6.726;2023-12-04T04:40:55;1.30;99.90
59007;DHT22;44792;52.760;6.726;2023-12-04T04:43:20;1.30;99.90
59007;DHT22;44792;52.760;6.726;2023-12-04T04:45:46;1.30;99.90
59007;DHT22;44792;52.760;6.726;2023-12-04T04:48:12;1.30;99.90
59007;DHT22;44792;52.760;6.726;2023-12-04T04:50:38;1.30;99.90
59007;DHT22;44792;52.760;6.726;2023-12-04T04:53:03;1.30;99.90
59007;DHT22;44792;52.760;6.726;2023-12-04T04:55:29;1.30;99.90
59007;DHT22;44792;52.760;6.726;2023-12-04T04:57:57;1.30;99.90
59007;DHT22;44792;52.760;6.726;2023-12-04T05:00:23;1.30;99.90
59007;DHT22;44792;52.760;6.726;2023-12-04T05:02:48;1.30;99.90
59007;DHT22;44792;52.760;6.726;2023-12-04T05:05:14;1.30;99.90
59007;DHT22;44792;52.760;6.726;2023-12-04T05:07:39;1.20;99.90
59007;DHT22;44792;52.760;6.726;2023-12-04T05:10:05;1.30;99.90
59007;DHT22;44792;52.760;6.726;2023-12-04T05:12:31;1.20;99.90
59007;DHT22;44792;52.760;6.726;2023-12-04T05:14:57;1.20;99.90
59007;DHT22;44792;52.760;6.726;2023-12-04T05:17:22;1.30;99.90
59007;DHT22;44792;52.760;6.726;2023-12-04T05:19:48;1.30;99.90
59007;DHT22;44792;52.760;6.726;2023-12-04T05:22:14;1.20;99.90
59007;DHT22;44792;52.760;6.726;2023-12-04T05:24:39;1.20;99.90
59007;DHT22;44792;52.760;6.726;2023-12-04T05:27:05;1.30;99.90
59007;DHT22;44792;52.760;6.726;2023-12-04T05:29:31;1.30;99.90
59007;DHT22;44792;52.760;6.726;2023-12-04T05:31:57;1.30;99.90
59007;DHT22;44792;52.760;6.726;2023-12-04T05:34:23;1.30;99.90
59007;DHT22;44792;52.760;6.726;2023-12-04T05:36:49;1.30;99.90
59007;DHT22;44792;52.760;6.726;2023-12-04T05:39:14;1.40;99.90
59007;DHT22;44792;52.760;6.726;2023-12-04T05:41:40;1.30;99.90
59007;DHT22;44792;52.760;6.726;2023-12-04T05:44:06;1.30;99.90
59007;DHT22;44792;52.760;6.726;2023-12-04T05:46:31;1.40;99.90
59007;DHT22;44792;52.760;6.726;2023-12-04T05:48:58;1.30;99.90
59007;DHT22;44792;52.760;6.726;2023-12-04T05:51:23;1.40;99.90
59007;DHT22;44792;52.760;6.726;2023-12-04T05:53:49;1.30;99.90
59007;DHT22;44792;52.760;6.726;2023-12-04T05:56:15;1.40;99.90
59007;DHT22;44792;52.760;6.726;2023-12-04T05:58:41;1.40;99.90
59007;DHT22;44792;52.760;6.726;2023-12-04T06:01:06;1.40;99.90
59007;DHT22;44792;52.760;6.726;2023-12-04T06:03:33;1.30;99.90
59007;DHT22;44792;52.760;6.726;2023-12-04T06:05:58;1.30;99.90
59007;DHT22;44792;52.760;6.726;2023-12-04T06:08:24;1.30;99.90
59007;DHT22;44792;52.760;6.726;2023-12-04T06:10:50;1.40;99.90
59007;DHT22;44792;52.760;6.726;2023-12-04T06:13:16;1.40;99.90
59007;DHT22;44792;52.760;6.726;2023-12-04T06:15:41;1.40;99.90
59007;DHT22;44792;52.760;6.726;2023-12-04T06:18:07;1.40;99.90
59007;DHT22;44792;52.760;6.726;2023-12-04T06:20:33;1.40;99.90
59007;DHT22;44792;52.760;6.726;2023-12-04T06:22:59;1.40;99.90
59007;DHT22;44792;52.760;6.726;2023-12-04T06:25:25;1.40;99.90
59007;DHT22;44792;52.760;6.726;2023-12-04T06:27:51;1.50;99.90
59007;DHT22;44792;52.760;6.726;2023-12-04T06:30:18;1.40;99.90
59007;DHT22;44792;52.760;6.726;2023-12-04T06:32:44;1.40;99.90
59007;DHT22;44792;52.760;6.726;2023-12-04T06:35:10;1.30;99.90
59007;DHT22;44792;52.760;6.726;2023-12-04T06:37:38;1.30;99.90
59007;DHT22;44792;52.760;6.726;2023-12-04T06:40:06;1.20;99.90
59007;DHT22;44792;52.760;6.726;2023-12-04T06:42:35;1.30;99.90
59007;DHT22;44792;52.760;6.726;2023-12-04T06:45:01;1.30;99.90
59007;DHT22;44792;52.760;6.726;2023-12-04T06:47:30;1.30;99.90
59007;DHT22;44792;52.760;6.726;2023-12-04T06:49:56;1.30;99.90
59007;DHT22;44792;52.760;6.726;2023-12-04T06:52:22;1.30;99.90
59007;DHT22;44792;52.760;6.726;2023-12-04T06:54:47;1.30;99.90
59007;DHT22;44792;52.760;6.726;2023-12-04T06:57:13;1.30;99.90
59007;DHT22;44792;52.760;6.726;2023-12-04T06:59:42;1.30;99.90
59007;DHT22;44792;52.760;6.726;2023-12-04T07:02:07;1.30;99.90
59007;DHT22;44792;52.760;6.726;2023-12-04T07:04:33;1.30;99.90
59007;DHT22;44792;52.760;6.726;2023-12-04T07:06:59;1.20;99.90
59007;DHT22;44792;52.760;6.726;2023-12-04T07:09:31;1.20;99.90
59007;DHT22;44792;52.760;6.726;2023-12-04T07:11:57;1.30;99.90
59007;DHT22;44792;52.760;6.726;2023-12-04T07:14:23;1.30;99.90
59007;DHT22;44792;52.760;6.726;2023-12-04T07:16:49;1.20;99.90
59007;DHT22;44792;52.760;6.726;2023-12-04T07:19:15;1.20;99.90
59007;DHT22;44792;52.760;6.726;2023-12-04T07:21:42;1.20;99.90
59007;DHT22;44792;52.760;6.726;2023-12-04T07:24:08;1.20;99.90
59007;DHT22;44792;52.760;6.726;2023-12-04T07:26:34;1.30;99.90
59007;DHT22;44792;52.760;6.726;2023-12-04T07:29:01;1.30;99.90
59007;DHT22;44792;52.760;6.726;2023-12-04T07:31:27;1.30;99.90
59007;DHT22;44792;52.760;6.726;2023-12-04T07:33:56;1.40;99.90
59007;DHT22;44792;52.760;6.726;2023-12-04T07:36:22;1.30;99.90
59007;DHT22;44792;52.760;6.726;2023-12-04T07:38:47;1.30;99.90
59007;DHT22;44792;52.760;6.726;2023-12-04T07:41:14;1.30;99.90
59007;DHT22;44792;52.760;6.726;2023-12-04T07:43:40;1.30;99.90
59007;DHT22;44792;52.760;6.726;2023-12-04T07:46:06;1.30;99.90
59007;DHT22;44792;52.760;6.726;2023-12-04T07:48:34;1.30;99.90
59007;DHT22;44792;52.760;6.726;2023-12-04T07:51:00;1.30;99.90
59007;DHT22;44792;52.760;6.726;2023-12-04T07:53:25;1.40;99.90
59007;DHT22;44792;52.760;6.726;2023-12-04T07:55:51;1.40;99.90
59007;DHT22;44792;52.760;6.726;2023-12-04T07:58:17;1.40;99.90
59007;DHT22;44792;52.760;6.726;2023-12-04T08:00:47;1.30;99.90
59007;DHT22;44792;52.760;6.726;2023-12-04T08:03:13;1.30;99.90
59007;DHT22;44792;52.760;6.726;2023-12-04T08:05:38;1.30;99.90
59007;DHT22;44792;52.760;6.726;2023-12-04T08:08:04;1.30;99.90
59007;DHT22;44792;52.760;6.726;2023-12-04T08:10:30;1.30;99.90
59007;DHT22;44792;52.760;6.726;2023-12-04T08:12:57;1.30;99.90
59007;DHT22;44792;52.760;6.726;2023-12-04T08:15:22;1.30;99.90
59007;DHT22;44792;52.760;6.726;2023-12-04T08:17:48;1.80;99.90
59007;DHT22;44792;52.760;6.726;2023-12-04T08:20:14;1.50;99.90
59007;DHT22;44792;52.760;6.726;2023-12-04T08:22:41;1.60;99.90
59007;DHT22;44792;52.760;6.726;2023-12-04T08:25:07;1.50;99.90
59007;DHT22;44792;52.760;6.726;2023-12-04T08:27:33;1.50;99.90
59007;DHT22;44792;52.760;6.726;2023-12-04T08:29:59;1.50;99.90
59007;DHT22;44792;52.760;6.726;2023-12-04T08:32:24;1.50;99.90
59007;DHT22;44792;52.760;6.726;2023-12-04T08:34:52;1.60;99.90
59007;DHT22;44792;52.760;6.726;2023-12-04T08:37:20;1.50;99.90
59007;DHT22;44792;52.760;6.726;2023-12-04T08:39:46;1.50;99.90
59007;DHT22;44792;52.760;6.726;2023-12-04T08:42:12;1.50;99.90
59007;DHT22;44792;52.760;6.726;2023-12-04T08:44:38;1.40;99.90
59007;DHT22;44792;52.760;6.726;2023-12-04T08:47:04;1.50;99.90
59007;DHT22;44792;52.760;6.726;2023-12-04T08:49:30;1.50;99.90
59007;DHT22;44792;52.760;6.726;2023-12-04T08:51:56;1.50;99.90
59007;DHT22;44792;52.760;6.726;2023-12-04T08:54:23;1.50;99.90
59007;DHT22;44792;52.760;6.726;2023-12-04T08:56:48;1.50;99.90
59007;DHT22;44792;52.760;6.726;2023-12-04T08:59:14;1.60;99.90
59007;DHT22;44792;52.760;6.726;2023-12-04T09:01:40;1.60;99.90
59007;DHT22;44792;52.760;6.726;2023-12-04T09:04:08;1.50;99.90
59007;DHT22;44792;52.760;6.726;2023-12-04T09:06:33;1.50;99.90
59007;DHT22;44792;52.760;6.726;2023-12-04T09:08:59;1.60;99.90
59007;DHT22;44792;52.760;6.726;2023-12-04T09:11:25;1.50;99.90
59007;DHT22;44792;52.760;6.726;2023-12-04T09:13:50;1.50;99.90
59007;DHT22;44792;52.760;6.726;2023-12-04T09:16:17;1.60;99.90
59007;DHT22;44792;52.760;6.726;2023-12-04T09:18:43;1.60;99.90
59007;DHT22;44792;52.760;6.726;2023-12-04T09:21:08;1.60;99.90
59007;DHT22;44792;52.760;6.726;2023-12-04T09:23:35;1.60;99.90
59007;DHT22;44792;52.760;6.726;2023-12-04T09:26:01;1.60;99.90
59007;DHT22;44792;52.760;6.726;2023-12-04T09:28:26;1.70;99.90
59007;DHT22;44792;52.760;6.726;2023-12-04T09:30:52;1.70;99.90
59007;DHT22;44792;52.760;6.726;2023-12-04T09:33:18;1.70;99.90
59007;DHT22;44792;52.760;6.726;2023-12-04T09:35:44;1.70;99.90
59007;DHT22;44792;52.760;6.726;2023-12-04T09:38:10;1.80;99.90
59007;DHT22;44792;52.760;6.726;2023-12-04T09:40:36;1.80;99.90
59007;DHT22;44792;52.760;6.726;2023-12-04T09:43:01;1.80;99.90
59007;DHT22;44792;52.760;6.726;2023-12-04T09:45:29;1.80;99.90
59007;DHT22;44792;52.760;6.726;2023-12-04T09:47:58;1.80;99.90
59007;DHT22;44792;52.760;6.726;2023-12-04T09:50:24;1.80;99.90
59007;DHT22;44792;52.760;6.726;2023-12-04T09:52:50;1.80;99.90
59007;DHT22;44792;52.760;6.726;2023-12-04T09:55:16;2.00;99.90
59007;DHT22;44792;52.760;6.726;2023-12-04T09:57:44;2.00;99.90
59007;DHT22;44792;52.760;6.726;2023-12-04T10:00:12;2.00;99.90
59007;DHT22;44792;52.760;6.726;2023-12-04T10:02:40;2.00;99.90
59007;DHT22;44792;52.760;6.726;2023-12-04T10:05:06;2.00;99.90
59007;DHT22;44792;52.760;6.726;2023-12-04T10:07:32;2.00;99.90
59007;DHT22;44792;52.760;6.726;2023-12-04T10:09:58;2.20;99.90
59007;DHT22;44792;52.760;6.726;2023-12-04T10:12:24;2.20;99.90
59007;DHT22;44792;52.760;6.726;2023-12-04T10:15:11;2.20;99.90
59007;DHT22;44792;52.760;6.726;2023-12-04T10:17:39;2.10;99.90
59007;DHT22;44792;52.760;6.726;2023-12-04T10:20:10;2.30;99.90
59007;DHT22;44792;52.760;6.726;2023-12-04T10:22:57;2.20;99.90
59007;DHT22;44792;52.760;6.726;2023-12-04T10:25:24;2.20;99.90
59007;DHT22;44792;52.760;6.726;2023-12-04T10:27:51;2.20;99.90
59007;DHT22;44792;52.760;6.726;2023-12-04T10:30:27;2.30;99.90
59007;DHT22;44792;52.760;6.726;2023-12-04T10:33:04;2.20;99.90
59007;DHT22;44792;52.760;6.726;2023-12-04T10:35:35;2.20;99.90
59007;DHT22;44792;52.760;6.726;2023-12-04T10:38:05;2.20;99.90
59007;DHT22;44792;52.760;6.726;2023-12-04T10:40:36;2.30;99.90
59007;DHT22;44792;52.760;6.726;2023-12-04T10:43:15;2.30;99.90
59007;DHT22;44792;52.760;6.726;2023-12-04T10:45:41;2.40;99.90
59007;DHT22;44792;52.760;6.726;2023-12-04T10:48:08;2.40;99.90
59007;DHT22;44792;52.760;6.726;2023-12-04T10:50:35;2.40;99.90
59007;DHT22;44792;52.760;6.726;2023-12-04T10:53:04;2.40;99.90
59007;DHT22;44792;52.760;6.726;2023-12-04T10:55:31;2.30;99.90
59007;DHT22;44792;52.760;6.726;2023-12-04T10:57:57;2.40;99.90
59007;DHT22;44792;52.760;6.726;2023-12-04T11:00:25;2.40;99.90
59007;DHT22;44792;52.760;6.726;2023-12-04T11:02:55;2.40;99.90
59007;DHT22;44792;52.760;6.726;2023-12-04T11:05:23;2.40;99.90
59007;DHT22;44792;52.760;6.726;2023-12-04T11:07:56;2.40;99.90
59007;DHT22;44792;52.760;6.726;2023-12-04T11:10:23;2.40;99.90
59007;DHT22;44792;52.760;6.726;2023-12-04T11:13:15;2.40;99.90
59007;DHT22;44792;52.760;6.726;2023-12-04T11:15:44;2.40;99.90
59007;DHT22;44792;52.760;6.726;2023-12-04T11:18:13;2.40;99.90
59007;DHT22;44792;52.760;6.726;2023-12-04T11:20:58;2.50;99.90
59007;DHT22;44792;52.760;6.726;2023-12-04T11:23:25;2.40;99.90
59007;DHT22;44792;52.760;6.726;2023-12-04T11:25:53;2.40;99.90
59007;DHT22;44792;52.760;6.726;2023-12-04T11:28:19;2.40;99.90
59007;DHT22;44792;52.760;6.726;2023-12-04T11:30:45;2.40;99.90
59007;DHT22;44792;52.760;6.726;2023-12-04T11:33:11;2.40;99.90
59007;DHT22;44792;52.760;6.726;2023-12-04T11:35:38;2.50;99.90
59007;DHT22;44792;52.760;6.726;2023-12-04T11:38:07;2.40;99.90
59007;DHT22;44792;52.760;6.726;2023-12-04T11:40:35;2.50;99.90
59007;DHT22;44792;52.760;6.726;2023-12-04T11:43:20;2.40;99.90
59007;DHT22;44792;52.760;6.726;2023-12-04T11:45:47;2.40;99.90
59007;DHT22;44792;52.760;6.726;2023-12-04T11:48:14;2.50;99.90
59007;DHT22;44792;52.760;6.726;2023-12-04T11:50:40;2.50;99.90
59007;DHT22;44792;52.760;6.726;2023-12-04T11:53:06;2.50;99.90
59007;DHT22;44792;52.760;6.726;2023-12-04T11:55:35;2.50;99.90
59007;DHT22;44792;52.760;6.726;2023-12-04T11:58:09;2.50;99.90
59007;DHT22;44792;52.760;6.726;2023-12-04T12:00:35;2.50;99.90
59007;DHT22;44792;52.760;6.726;2023-12-04T12:03:03;2.60;99.90
59007;DHT22;44792;52.760;6.726;2023-12-04T12:05:32;2.60;99.90
59007;DHT22;44792;52.760;6.726;2023-12-04T12:08:02;2.60;99.90
59007;DHT22;44792;52.760;6.726;2023-12-04T12:10:29;2.50;99.90
59007;DHT22;44792;52.760;6.726;2023-12-04T12:12:55;2.60;99.90
59007;DHT22;44792;52.760;6.726;2023-12-04T12:15:22;2.60;99.90
59007;DHT22;44792;52.760;6.726;2023-12-04T12:17:49;2.50;99.90
59007;DHT22;44792;52.760;6.726;2023-12-04T12:20:16;2.50;99.90
59007;DHT22;44792;52.760;6.726;2023-12-04T12:22:41;2.60;99.90
59007;DHT22;44792;52.760;6.726;2023-12-04T12:25:10;2.50;99.90
59007;DHT22;44792;52.760;6.726;2023-12-04T12:27:36;2.50;99.90
59007;DHT22;44792;52.760;6.726;2023-12-04T12:30:02;2.60;99.90
59007;DHT22;44792;52.760;6.726;2023-12-04T12:32:30;2.50;99.90
59007;DHT22;44792;52.760;6.726;2023-12-04T12:34:56;2.50;99.90
59007;DHT22;44792;52.760;6.726;2023-12-04T12:37:22;2.60;99.90
59007;DHT22;44792;52.760;6.726;2023-12-04T12:39:48;2.60;99.90
59007;DHT22;44792;52.760;6.726;2023-12-04T12:42:29;2.50;99.90
59007;DHT22;44792;52.760;6.726;2023-12-04T12:44:59;2.50;99.90
59007;DHT22;44792;52.760;6.726;2023-12-04T12:47:25;2.50;99.90
59007;DHT22;44792;52.760;6.726;2023-12-04T12:49:52;2.50;99.90
59007;DHT22;44792;52.760;6.726;2023-12-04T12:52:18;2.60;99.90
59007;DHT22;44792;52.760;6.726;2023-12-04T12:54:45;2.50;99.90
59007;DHT22;44792;52.760;6.726;2023-12-04T12:57:11;2.50;99.90
59007;DHT22;44792;52.760;6.726;2023-12-04T12:59:38;2.60;99.90
59007;DHT22;44792;52.760;6.726;2023-12-04T13:02:05;2.60;99.90
59007;DHT22;44792;52.760;6.726;2023-12-04T13:04:35;2.60;99.90
59007;DHT22;44792;52.760;6.726;2023-12-04T13:07:01;2.60;99.90
59007;DHT22;44792;52.760;6.726;2023-12-04T13:09:29;2.60;99.90
59007;DHT22;44792;52.760;6.726;2023-12-04T13:11:54;2.70;99.90
59007;DHT22;44792;52.760;6.726;2023-12-04T13:14:20;2.60;99.90
59007;DHT22;44792;52.760;6.726;2023-12-04T13:16:46;2.70;99.90
59007;DHT22;44792;52.760;6.726;2023-12-04T13:19:12;2.80;99.90
59007;DHT22;44792;52.760;6.726;2023-12-04T13:21:38;2.70;99.90
59007;DHT22;44792;52.760;6.726;2023-12-04T13:24:04;2.60;99.90
59007;DHT22;44792;52.760;6.726;2023-12-04T13:26:33;2.60;99.90
59007;DHT22;44792;52.760;6.726;2023-12-04T13:28:59;2.50;99.90
59007;DHT22;44792;52.760;6.726;2023-12-04T13:31:25;2.50;99.90
59007;DHT22;44792;52.760;6.726;2023-12-04T13:33:50;2.50;99.90
59007;DHT22;44792;52.760;6.726;2023-12-04T13:36:17;2.50;99.90
59007;DHT22;44792;52.760;6.726;2023-12-04T13:38:43;2.50;99.90
59007;DHT22;44792;52.760;6.726;2023-12-04T13:41:09;2.50;99.90
59007;DHT22;44792;52.760;6.726;2023-12-04T13:43:54;2.40;99.90
59007;DHT22;44792;52.760;6.726;2023-12-04T13:46:21;2.40;99.90
59007;DHT22;44792;52.760;6.726;2023-12-04T13:48:47;2.40;99.90
59007;DHT22;44792;52.760;6.726;2023-12-04T13:51:13;2.40;99.90
59007;DHT22;44792;52.760;6.726;2023-12-04T13:53:40;2.40;99.90
59007;DHT22;44792;52.760;6.726;2023-12-04T13:56:11;2.30;99.90
59007;DHT22;44792;52.760;6.726;2023-12-04T13:58:36;2.40;99.90
59007;DHT22;44792;52.760;6.726;2023-12-04T14:01:11;2.30;99.90
59007;DHT22;44792;52.760;6.726;2023-12-04T14:03:44;2.40;99.90
59007;DHT22;44792;52.760;6.726;2023-12-04T14:06:10;2.40;99.90
59007;DHT22;44792;52.760;6.726;2023-12-04T14:08:37;2.40;99.90
59007;DHT22;44792;52.760;6.726;2023-12-04T14:11:03;2.30;99.90
59007;DHT22;44792;52.760;6.726;2023-12-04T14:13:33;2.30;99.90
59007;DHT22;44792;52.760;6.726;2023-12-04T14:15:59;2.30;99.90
59007;DHT22;44792;52.760;6.726;2023-12-04T14:18:25;2.40;99.90
59007;DHT22;44792;52.760;6.726;2023-12-04T14:20:51;2.30;99.90
59007;DHT22;44792;52.760;6.726;2023-12-04T14:23:17;2.30;99.90
59007;DHT22;44792;52.760;6.726;2023-12-04T14:25:45;2.30;99.90
59007;DHT22;44792;52.760;6.726;2023-12-04T14:28:10;2.30;99.90
59007;DHT22;44792;52.760;6.726;2023-12-04T14:30:36;2.40;99.90
59007;DHT22;44792;52.760;6.726;2023-12-04T14:33:02;2.30;99.90
59007;DHT22;44792;52.760;6.726;2023-12-04T14:35:28;2.40;99.90
59007;DHT22;44792;52.760;6.726;2023-12-04T14:37:53;2.40;99.90
59007;DHT22;44792;52.760;6.726;2023-12-04T14:40:19;2.40;99.90
59007;DHT22;44792;52.760;6.726;2023-12-04T14:42:46;2.40;99.90
59007;DHT22;44792;52.760;6.726;2023-12-04T14:45:13;2.40;99.90
59007;DHT22;44792;52.760;6.726;2023-12-04T14:47:39;2.40;99.90
59007;DHT22;44792;52.760;6.726;2023-12-04T14:50:06;2.50;99.90
59007;DHT22;44792;52.760;6.726;2023-12-04T14:52:32;2.40;99.90
59007;DHT22;44792;52.760;6.726;2023-12-04T14:54:59;2.50;99.90
59007;DHT22;44792;52.760;6.726;2023-12-04T14:57:34;2.40;99.90
59007;DHT22;44792;52.760;6.726;2023-12-04T15:00:07;2.40;99.90
59007;DHT22;44792;52.760;6.726;2023-12-04T15:02:38;2.40;99.90
59007;DHT22;44792;52.760;6.726;2023-12-04T15:05:22;2.40;99.90
59007;DHT22;44792;52.760;6.726;2023-12-04T15:08:07;2.30;99.90
59007;DHT22;44792;52.760;6.726;2023-12-04T15:10:51;2.30;99.90
59007;DHT22;44792;52.760;6.726;2023-12-04T15:13:36;2.30;99.90
59007;DHT22;44792;52.760;6.726;2023-12-04T15:16:16;2.40;99.90
59007;DHT22;44792;52.760;6.726;2023-12-04T15:18:51;2.30;99.90
59007;DHT22;44792;52.760;6.726;2023-12-04T15:21:26;2.20;99.90
59007;DHT22;44792;52.760;6.726;2023-12-04T15:23:52;2.30;99.90
59007;DHT22;44792;52.760;6.726;2023-12-04T15:26:18;2.40;99.90
59007;DHT22;44792;52.760;6.726;2023-12-04T15:28:44;2.30;99.90
59007;DHT22;44792;52.760;6.726;2023-12-04T15:31:10;2.30;99.90
59007;DHT22;44792;52.760;6.726;2023-12-04T15:33:35;2.40;99.90
59007;DHT22;44792;52.760;6.726;2023-12-04T15:36:01;2.40;99.90
59007;DHT22;44792;52.760;6.726;2023-12-04T15:38:28;2.30;99.90
59007;DHT22;44792;52.760;6.726;2023-12-04T15:40:55;3.10;99.90
59007;DHT22;44792;52.760;6.726;2023-12-04T15:43:22;2.60;99.90